金龙论坛

 找回密码
 立即注册
收藏本版

动漫卡通下载 今日: 0|主题: 314|排名: 20 

作者 回复/查看 最后发表
[【日本动漫】] 夏日战争/夏日大作战 Summer.Wars.2009.720p.Bluray.AC3.x264-LongBT 4.36GB attach_img heatlevel 水王 2014-5-2 51364 wolove712 2018-7-9 10:51
[【欧美动漫】] 里约2096:爱与骚动的故事 Rio.2096.A.Story.of.Love.and.Fury.2013.720p.BluRay.DTS.x264-CRiSC attach_img heatlevel 水王 2014-4-30 71429 wolove712 2018-7-9 10:46
[【欧美动漫】] 【机密复仇者:黑寡妇与惩罚】【HR-HDTV+MP4/1.26G+473M/双语字幕】【2014年美国最新动画片】-LongBT attach_img heatlevel 水王 2014-4-11 111723 wolove712 2018-7-9 09:12
[【欧美动漫】] 寻找卡米洛城/卡麦勒传说 Quest.for.Camelot.1998.720p.WEB-DL.H264-LongBT 2.73GB attach_img 水王 2014-4-12 31281 wolove712 2018-7-9 09:07
[【日本动漫】] 猫的报恩 The.Cat.Returns.2002.720p.BluRay.x264-LongBT 2.65GB attach_img 水王 2014-4-12 31078 wolove712 2018-7-9 09:06
[【欧美动漫】] 《··猥··琐·传说:大电影》高清迅雷下载 触点 2014-6-14 41490 wolove712 2018-7-8 21:54
[【日本动漫】] [漫游字幕组] 罗德斯岛战记OVA 灰色魔女(Record of Lodoss War)BDRip 1280X960 简中 attachment 触点 2014-6-17 41841 wolove712 2018-7-8 21:53
[【中国动漫】] 【三小强】【HD-RMVB/918MGB/国语中字幕】【2014年大陆动画片高清版】-LongBT attach_img 水王 2014-4-27 41300 wolove712 2018-7-8 18:52
[【欧美动漫】] 小偷与鞋匠 The.Thief.And.The.Cobbler.1993.Mark.IV.1080p.WEB-DL.H264-PTP 5.87GB attach_img 水王 2014-4-26 41264 wolove712 2018-7-8 18:44
[【欧美动漫】] 【蝙蝠侠之子】【BD-RMVB/830MB/英语中英双字幕】【2013年欧美最新冒险动画片】-LongBT attach_img 水王 2014-4-22 31172 wolove712 2018-7-8 17:52
[【欧美动漫】] 【蝙蝠侠之子】【BD-RMVB/1.3G/英语中字幕】【2014年欧美高清动画大片】-LongBT attach_img digest heatlevel 水王 2014-4-21 61381 wolove712 2018-7-8 15:30
[【日本动漫】] 船长哈洛克 Space.Pirate.Captain.Harlock.2013.1080p.BluRay.DTS-HD.MA.5.1.x264-LongBT 1 attach_img heatlevel 水王 2014-4-18 61347 wolove712 2018-7-8 15:29
[【欧美动漫】] 蝙蝠侠之子 Son.Of.Batman.2014.720p.BluRay.DTS.x264-LongBT 3GB attach_img 水王 2014-4-16 3952 wolove712 2018-7-8 13:39
[【中国动漫】] 风云决 Storm.Rider.Clash.of.Evils.2008.Blu-Ray.720p.DTS.x264-LongBT 4.4GB attach_img heatlevel 水王 2014-4-16 131483 wolove712 2018-7-8 13:33
[【欧美动漫】] 狂野大自然/野蛮任务 The Wild 2006 BluRay 720p DTS x264 MgB 3.57GB attach_img heatlevel 水王 2014-4-16 61351 wolove712 2018-7-8 13:31
[【欧美动漫】] 米老鼠温馨圣诞 Mickeys.Once.Upon.a.Christmas.1999.720p.WEB-DL-LongBT 2.16 GB attach_img 水王 2014-4-15 41174 wolove712 2018-7-8 00:00
[【欧美动漫】] 世界大战:歌利亚 War.Of.The.Worlds.Goliath.2012.720p.BluRay.DTS.x264-LongBT 2.79 GB attach_img 水王 2014-4-16 51186 wolove712 2018-7-7 23:56
[【欧美动漫】] 抢劫坚果店/坚果行动 The.Nut.Job.2014.BluRay.1080p.x264.DTS-HD.MA.5.1-LTT 5.97GB attach_img 水王 2014-4-11 31084 wolove712 2018-7-7 22:45
[【欧美动漫】] 拜见罗宾逊一家 Meet.The.Robinsons.2007.BluRay.1080p.Rus.Eng.Ukr.DTS.x264-LongBT 9GB attach_img 水王 2014-4-11 41380 wolove712 2018-7-7 21:06
[【欧美动漫】] 里约大冒险/奇鹦嘉年华 Rio 2011 BluRay 720p DTS x264 MgB 3.55GB attach_img heatlevel 水王 2014-4-11 41697 wolove712 2018-7-7 21:05
[【欧美动漫】] 史酷比!格斗狂热迷 Scooby-Doo.WrestleMania.Mystery.2014.720p.BluRay.x264-AN0NYM0US 3.28GB attach_img 水王 2014-4-11 3969 wolove712 2018-7-7 21:04
[【欧美动漫】] 抢劫坚果店/坚果行动 The Nut Job 2014 BluRay 720p DTS x264 MgB 3.55GB attach_img heatlevel 水王 2014-4-10 51323 wolove712 2018-7-7 19:30
[【欧美动漫】] 驯龙骑士/天平与剑[国粤英]Justin.and.the.Knights.of.Valour.2013.720p.BluRay.x264-LongBT 4.37 attach_img heatlevel 水王 2014-4-10 81440 wolove712 2018-7-7 17:15
[【日本动漫】] 船长哈洛克/宇宙海盗船长哈洛克/宇宙海盗夏罗古(港) Space.Pirate.Captain.Harlock.2013.720p.BluRay.x264-Lo attach_img 水王 2014-4-5 1911 wolove712 2018-7-7 17:07
[【欧美动漫】] 抢劫坚果店/坚果行动(台) The.Nut.Job.2014.1080p.BluRay.DTS-HD.MA.5.1.x264-LongBT 6.55 GB attachment 水王 2014-4-4 2825 wolove712 2018-7-7 15:58
[【欧美动漫】] 抢劫坚果店/坚果行动(台) The.Nut.Job.2014.1080p.BluRay.x264-LongBT 4.37 GB attachment 水王 2014-4-4 1713 wolove712 2018-7-7 15:57
[【欧美动漫】] 抢劫坚果店/坚果行动(台) The.Nut.Job.2014.720p.BluRay.x264-LongBT 2.64 GB attach_img heatlevel 水王 2014-4-4 6798 tot55 2018-7-7 12:03
[【欧美动漫】] 桌面足球 Underdogs.aka.Metegol.2013.1080p.BluRay.DTS.x264-LongBT 6.74GB attachment 水王 2014-4-4 3827 tot55 2018-7-7 12:02
[【欧美动漫】] 抢劫坚果店/坚果行动(台) The.Nut.Job.2014.720p.BluRay.DTS.x264-LongBT 3.33 GB attach_img 水王 2014-4-4 1718 wolove712 2018-7-7 09:49
[【欧美动漫】] 桌面足球 Metegol.2013.720p.BluRay.DTS.x264-LongBT 3.50 GB attach_img 水王 2014-4-4 2986 wolove712 2018-7-7 09:48
[【日本动漫】] 剧场版魔法少女小圆 新篇:叛逆的故事 Puella.Magi.Madoka.Magica.the.Movie.Part.III.Rebellion.2013.7 attachment 水王 2014-3-31 1877 wolove712 2018-7-7 08:24
[【欧美动漫】] 机密复仇者:黑寡妇与惩罚者 2013.720p.BluRay.DTS.x264-LongBT 2.94GB attach_img heatlevel 水王 2014-3-31 51240 wolove712 2018-7-7 08:23
[【欧美动漫】] 精灵高中:惊声尖拍 Monster.High.Frights.Camera.Action.2014.720p.BluRay.x264-NOSCREENS 3.2 attach_img 水王 2014-3-30 41128 wolove712 2018-7-6 23:50
[【欧美动漫】] 机密复仇者:黑寡妇与惩罚者 2014.1080p.BluRay.x264-MELiTE 6.57GB attachment 水王 2014-3-29 41145 wolove712 2018-7-6 23:39
[【欧美动漫】] 机密复仇者:黑寡妇与惩罚者 2014.720p.BluRay.x264-NOSCREENS 3.28GB attachment 水王 2014-3-29 21087 wolove712 2018-7-6 22:30
[【欧美动漫】] 火鸡总动员[国/英].Free.Birds.2013.720p.BluRay.x264-LongBT 3.66GB attach_img digest heatlevel 水王 2014-3-26 161648 wolove712 2018-7-6 22:29
[【欧美动漫】] 艾哈迈德历险记拯救美国 Achmed.Saves.America.2014.720p.BluRay.x264-LongBT 2.19GB attachment 水王 2014-3-22 31021 wolove712 2018-7-6 21:25
[【欧美动漫】] 机密复仇者:黑寡妇与惩罚者 Avengers.Confidential.Black.Widow.And.Punisher.2014.720p.WEB-DL.H2 attachment digest heatlevel  ...2 水王 2014-3-12 342881 wolove712 2018-7-6 21:24
[【欧美动漫】] 天鹅公主:皇室传说.The.Swan.Princess.A.Royal.Family.Tale.2014.720p.BluRay.DTS.x264-LongBT attachment heatlevel  ...2 水王 2014-3-10 372643 wolove712 2018-7-5 22:11
[【欧美动漫】] 天鹅公主:皇室传说 The.Swan.Princess.A.Royal.Family.Tale.2014.720p.BluRay.x264-G3LHD 3.27 attachment heatlevel  ...23 水王 2014-3-5 572814 wolove712 2018-7-5 21:59
[【欧美动漫】] 冰雪奇缘/冰雪大冒险/冰雪皇后/魔雪奇缘(港) Frozen.2013.720p.BluRay.DTS.x264-LongBT 4.37GB attachment digest heatlevel  ...234 水王 2014-3-1 774697 wolove712 2018-7-5 17:04
[【欧美动漫】] 冰雪奇缘/冰雪大冒险/冰雪皇后/白雪皇后/魔雪奇缘(港) Frozen.2013.720p.BluRay.x264-LongBT 3.27GB attachment heatlevel  ...234 水王 2014-3-1 654449 wolove712 2018-7-5 17:03
[【欧美动漫】] 海鲜陆战队/海洋大队 Sea.Level.2011.READNFO.720p.BluRay.x264-SPLiTSViLLE 4.36GB attachment heatlevel  ...2 水王 2014-2-18 312318 wolove712 2018-7-5 15:12
[【欧美动漫】] 【拯救圣诞老人】Saving.Santa.2013.720p.BluRay.x264-LongBT 2.64 GB attach_img heatlevel 龙の徽 2013-11-25 6982 wolove712 2018-7-5 14:10
[【欧美动漫】] 【波鲁鲁冰雪大冒险/小企鹅波鲁鲁之冰雪世界赛车冒险记】Pororo.The.Racing.Adventure.2013.720p.BluRay.x264-iFP attach_img 龙の徽 2013-11-16 51065 wolove712 2018-7-5 14:09
[【欧美动漫】] 【蓝精灵2】[国/粤/英]The.Smurfs.2.2013.720p.BluRay.x264.DTS-LongBT 5.80G attach_img heatlevel 龙の徽 2013-11-16 161473 wolove712 2018-7-5 13:09
[【欧美动漫】] 【尼科救亲记/尼科的圣诞历险2】Little.Brother.Big.Trouble.A.Christmas.Adventure.2012.BluRay.720 attach_img heatlevel 龙の徽 2013-11-14 61048 wolove712 2018-7-5 13:08
[【欧美动漫】] 芭比之珍珠公主 Barbie.The.Pearl.Princess.2013.720p.BluRay.x264-LongBT 3.12GB attachment heatlevel  ...2 水王 2014-2-16 352444 wolove712 2018-7-5 11:42
[【欧美动漫】] 【钢铁人与浩克:联合战记】Iron.Man.And.Hulk-Heroes.United.2013.720p.BluRay.DTS.x264-AXED 3.40 attach_img digest heatlevel  ...23 龙の徽 2013-11-29 423862 wolove712 2018-7-5 11:41
[【欧美动漫】] 【太空堡垒:烽火情歌】【DVDRip-MKV/784MB】【英语中文字幕】【2013欧美动画片1024高清】 attach_img heatlevel 龙の徽 2013-9-10 71549 wolove712 2018-7-2 16:51
下一页 »

快速发帖

还可输入 80 个字符
您需要登录后才可以发帖 登录 | 立即注册

本版积分规则

QQ|小黑屋|手机版|Archiver|金龙论坛

GMT+8, 2019-6-26 05:02 , Processed in 1.279340 second(s), 12 queries , Gzip On.

返回顶部 返回版块